Time;durP1;ratioP1;P1;durP2;ratioP2;P2;SDS_P1;SDS_P2;PMS_P1;PMS_P2;Temp;Humidity;BMP_temperature;BMP_pressure;BME280_temperature;BME280_humidity;BME280_pressure;Samples;Min_cycle;Max_cycle;Signal;HPM_P1;HPM_P2
2023/12/29 00:00:13;;;;;;;12.35;2.70;;;;;;;10.09;92.19;100773.97;5038866;28;20036;-59
2023/12/29 00:02:39;;;;;;;10.80;2.90;;;;;;;10.10;92.36;100761.53;5034411;28;20406;-60
2023/12/29 00:05:04;;;;;;;13.40;3.00;;;;;;;10.10;92.31;100773.00;5034248;28;20037;-59
2023/12/29 00:07:29;;;;;;;11.70;2.45;;;;;;;10.13;92.17;100772.78;5039008;28;20037;-60
2023/12/29 00:09:55;;;;;;;10.23;2.22;;;;;;;10.17;91.63;100776.91;5041101;28;20145;-59
2023/12/29 00:12:20;;;;;;;10.27;2.85;;;;;;;10.18;91.74;100769.78;5042188;28;20025;-59
2023/12/29 00:14:45;;;;;;;9.13;2.38;;;;;;;10.19;92.00;100768.78;5041114;28;20028;-57
2023/12/29 00:17:11;;;;;;;10.80;2.72;;;;;;;10.19;91.80;100766.13;5037063;28;20071;-58
2023/12/29 00:19:36;;;;;;;12.32;2.72;;;;;;;10.23;91.73;100770.25;5037492;28;20442;-57
2023/12/29 00:22:02;;;;;;;9.02;2.30;;;;;;;10.22;91.65;100763.25;5039819;28;20037;-58
2023/12/29 00:24:31;;;;;;;12.00;2.47;;;;;;;10.24;91.96;100768.44;5040166;28;20101;-58
2023/12/29 00:26:56;;;;;;;9.32;2.60;;;;;;;10.25;91.76;100763.03;5039158;28;20394;-58
2023/12/29 00:29:21;;;;;;;8.73;2.60;;;;;;;10.25;91.89;100757.72;5042996;28;20029;-58
2023/12/29 00:31:47;;;;;;;13.85;2.88;;;;;;;10.26;91.81;100756.75;5040684;28;20025;-58
2023/12/29 00:34:12;;;;;;;13.73;2.78;;;;;;;10.28;91.61;100759.31;5041793;28;20388;-58
2023/12/29 00:36:37;;;;;;;13.15;3.03;;;;;;;10.30;91.58;100760.03;5040245;28;20025;-58
2023/12/29 00:39:02;;;;;;;10.35;2.45;;;;;;;10.27;91.24;100758.44;5043361;28;20059;-57
2023/12/29 00:41:28;;;;;;;9.20;2.58;;;;;;;10.28;91.54;100738.91;5036605;28;20025;-59
2023/12/29 00:43:53;;;;;;;14.13;2.92;;;;;;;10.29;92.12;100745.03;5044098;28;20033;-57
2023/12/29 00:46:18;;;;;;;12.55;2.95;;;;;;;10.27;93.09;100739.84;5036851;28;20036;-57
2023/12/29 00:48:44;;;;;;;11.30;2.85;;;;;;;10.29;93.10;100731.78;5035693;28;20564;-58
2023/12/29 00:51:09;;;;;;;12.73;2.70;;;;;;;10.22;94.58;100728.75;5020430;28;20029;-57
2023/12/29 00:53:35;;;;;;;12.15;2.75;;;;;;;10.19;94.44;100736.94;5041055;28;20382;-57
2023/12/29 00:56:00;;;;;;;14.00;3.20;;;;;;;10.17;94.39;100733.56;5034811;28;20033;-58
2023/12/29 00:58:25;;;;;;;11.20;2.78;;;;;;;10.11;96.05;100742.84;5042889;28;20056;-59
2023/12/29 01:00:50;;;;;;;10.25;2.20;;;;;;;10.05;97.38;100740.66;5040054;28;20021;-57
2023/12/29 01:03:16;;;;;;;8.85;2.40;;;;;;;10.00;98.27;100737.50;5043264;28;20078;-59
2023/12/29 01:05:41;;;;;;;9.73;3.08;;;;;;;9.99;98.25;100736.69;5037984;28;20068;-58
2023/12/29 01:08:06;;;;;;;10.73;2.58;;;;;;;9.93;99.14;100734.47;5037716;28;20371;-58
2023/12/29 01:10:32;;;;;;;11.07;2.53;;;;;;;9.86;100.00;100730.59;5040293;28;20022;-59
2023/12/29 01:12:57;;;;;;;9.63;2.50;;;;;;;9.79;100.00;100737.31;5039619;28;20057;-59
2023/12/29 01:15:22;;;;;;;7.28;2.33;;;;;;;9.70;100.00;100741.50;5036133;28;20470;-59
2023/12/29 01:17:48;;;;;;;12.63;3.03;;;;;;;9.66;100.00;100734.75;5039445;28;20392;-60
2023/12/29 01:20:13;;;;;;;9.75;2.35;;;;;;;9.61;100.00;100743.03;5037237;28;20124;-59
2023/12/29 01:22:38;;;;;;;11.05;2.47;;;;;;;9.54;100.00;100733.00;5042260;28;20438;-60
2023/12/29 01:25:03;;;;;;;11.40;2.78;;;;;;;9.47;100.00;100737.06;5036821;28;20033;-60
2023/12/29 01:27:29;;;;;;;7.07;2.08;;;;;;;9.42;100.00;100737.41;5041738;28;20026;-59
2023/12/29 01:29:54;;;;;;;11.20;3.03;;;;;;;9.35;100.00;100733.53;5039601;28;20021;-59
2023/12/29 01:32:21;;;;;;;7.43;2.47;;;;;;;9.32;100.00;100725.78;5044923;28;20037;-59
2023/12/29 01:34:47;;;;;;;11.65;2.53;;;;;;;9.30;100.00;100736.50;5040870;28;20418;-59
2023/12/29 01:37:12;;;;;;;10.20;2.67;;;;;;;9.23;100.00;100735.25;5042339;28;20032;-59
2023/12/29 01:39:37;;;;;;;12.52;3.00;;;;;;;9.20;100.00;100724.88;5034128;28;20057;-60
2023/12/29 01:42:03;;;;;;;10.48;2.75;;;;;;;9.17;100.00;100725.09;5037817;28;20433;-60
2023/12/29 01:44:28;;;;;;;14.88;2.90;;;;;;;9.17;100.00;100718.00;5035287;28;20534;-59
2023/12/29 01:46:58;;;;;;;14.27;3.33;;;;;;;9.10;100.00;100707.97;5033882;28;20033;-60
2023/12/29 01:49:24;;;;;;;14.20;2.60;;;;;;;9.07;100.00;100709.03;5031397;28;20022;-59
2023/12/29 01:51:52;;;;;;;17.05;3.20;;;;;;;9.03;100.00;100708.41;5034179;28;20025;-59
2023/12/29 01:54:20;;;;;;;14.27;2.80;;;;;;;9.01;100.00;100723.56;5037801;28;20388;-58
2023/12/29 01:56:46;;;;;;;10.75;3.17;;;;;;;8.99;100.00;100712.25;5038008;28;20043;-59
2023/12/29 01:59:12;;;;;;;13.65;2.53;;;;;;;8.98;100.00;100715.00;5037219;28;20033;-59
2023/12/29 02:01:39;;;;;;;14.00;3.33;;;;;;;8.98;100.00;100715.00;5041616;28;20025;-60
2023/12/29 02:04:05;;;;;;;15.27;3.13;;;;;;;8.97;100.00;100711.47;5039440;28;20025;-59
2023/12/29 02:06:31;;;;;;;12.70;3.00;;;;;;;8.97;100.00;100715.94;5040339;28;20029;-59
2023/12/29 02:08:58;;;;;;;14.38;3.03;;;;;;;8.94;100.00;100716.16;5040201;28;20417;-59
2023/12/29 02:11:24;;;;;;;10.00;2.78;;;;;;;8.94;100.00;100724.94;5040188;28;20033;-59
2023/12/29 02:13:50;;;;;;;10.18;2.72;;;;;;;8.95;100.00;100729.28;5036774;28;20022;-59
2023/12/29 02:16:40;;;;;;;14.73;2.63;;;;;;;8.98;100.00;100733.53;5041418;28;20483;-59
2023/12/29 02:19:36;;;;;;;13.90;3.05;;;;;;;8.97;100.00;100724.72;5019104;28;20045;-59
2023/12/29 02:22:01;;;;;;;9.82;2.65;;;;;;;8.99;100.00;100728.13;5035132;28;20547;-60
2023/12/29 02:24:26;;;;;;;12.15;3.05;;;;;;;9.00;100.00;100721.03;5037248;28;20020;-59
2023/12/29 02:27:00;;;;;;;13.18;2.50;;;;;;;9.02;100.00;100732.34;5039784;28;20040;-60
2023/12/29 02:29:28;;;;;;;10.88;3.17;;;;;;;9.03;100.00;100721.66;5032567;28;20040;-59
2023/12/29 02:31:59;;;;;;;15.02;2.90;;;;;;;9.03;100.00;100724.28;5036986;28;20040;-59
2023/12/29 02:34:25;;;;;;;14.68;2.80;;;;;;;9.05;100.00;100709.13;5036572;28;20039;-59
2023/12/29 02:36:51;;;;;;;10.38;2.58;;;;;;;9.07;100.00;100704.56;5033529;28;20390;-59
2023/12/29 02:39:17;;;;;;;7.63;2.22;;;;;;;9.12;100.00;100712.19;5035695;28;20026;-60
2023/12/29 02:41:42;;;;;;;11.15;2.65;;;;;;;9.12;100.00;100706.03;5032579;28;20029;-59
2023/12/29 02:44:07;;;;;;;8.18;2.03;;;;;;;9.16;100.00;100705.72;5034084;28;20021;-61
2023/12/29 02:46:33;;;;;;;9.45;2.30;;;;;;;9.21;100.00;100718.63;5032323;28;20101;-59
2023/12/29 02:48:59;;;;;;;13.13;2.33;;;;;;;9.24;100.00;100707.78;5039721;28;20055;-59
2023/12/29 02:51:24;;;;;;;11.20;2.28;;;;;;;9.24;100.00;100731.63;5042096;28;20115;-59
2023/12/29 02:53:49;;;;;;;10.90;2.92;;;;;;;9.22;100.00;100713.19;5039106;28;20385;-59
2023/12/29 02:56:15;;;;;;;9.45;2.58;;;;;;;9.22;100.00;100715.84;5039418;28;20486;-59
2023/12/29 02:58:40;;;;;;;11.25;2.85;;;;;;;9.23;100.00;100712.25;5040294;28;20037;-59
2023/12/29 03:01:05;;;;;;;13.43;2.90;;;;;;;9.24;100.00;100716.59;5037872;28;20116;-59
2023/12/29 03:03:31;;;;;;;10.52;2.60;;;;;;;9.24;100.00;100724.56;5039302;28;20034;-58
2023/12/29 03:05:56;;;;;;;9.48;3.08;;;;;;;9.26;100.00;100709.38;5034801;28;20021;-58
2023/12/29 03:08:21;;;;;;;13.50;2.95;;;;;;;9.25;100.00;100706.84;5038239;28;20033;-58
2023/12/29 03:10:46;;;;;;;11.60;2.60;;;;;;;9.26;100.00;100713.84;5035710;28;20021;-58
2023/12/29 03:13:12;;;;;;;12.32;2.45;;;;;;;9.27;100.00;100704.91;5034838;28;20021;-59
2023/12/29 03:15:37;;;;;;;12.98;3.22;;;;;;;9.28;100.00;100705.78;5040028;28;20179;-58
2023/12/29 03:18:02;;;;;;;11.68;2.63;;;;;;;9.26;100.00;100713.84;5036734;28;20037;-60
2023/12/29 03:20:28;;;;;;;10.23;2.92;;;;;;;9.27;100.00;100712.88;5038499;28;20096;-59
2023/12/29 03:22:55;;;;;;;10.68;2.50;;;;;;;9.30;100.00;100717.94;5038692;28;20033;-59
2023/12/29 03:25:20;;;;;;;13.38;2.72;;;;;;;9.28;100.00;100714.56;5039042;28;20029;-59
2023/12/29 03:27:45;;;;;;;13.43;2.92;;;;;;;9.28;100.00;100717.22;5040642;28;20025;-59
2023/12/29 03:30:11;;;;;;;12.93;2.97;;;;;;;9.28;100.00;100727.81;5021036;28;20061;-60
2023/12/29 03:32:36;;;;;;;11.80;3.33;;;;;;;9.31;100.00;100705.53;5036234;28;20489;-59
2023/12/29 03:35:01;;;;;;;12.13;2.65;;;;;;;9.32;100.00;100718.69;5037959;28;20018;-59
2023/12/29 03:37:27;;;;;;;15.27;2.75;;;;;;;9.33;100.00;100720.38;5035175;28;20025;-59
2023/12/29 03:39:52;;;;;;;14.07;2.60;;;;;;;9.33;100.00;100707.13;5033603;28;20120;-59
2023/12/29 03:42:17;;;;;;;7.93;2.47;;;;;;;9.35;100.00;100707.84;5039500;28;20102;-59
2023/12/29 03:44:42;;;;;;;9.20;2.90;;;;;;;9.35;100.00;100699.91;5037702;28;20068;-59
2023/12/29 03:47:08;;;;;;;10.48;3.03;;;;;;;9.39;100.00;100696.09;5038709;28;20026;-59
2023/12/29 03:49:34;;;;;;;12.45;2.53;;;;;;;9.38;100.00;100704.97;5020284;28;20068;-60
2023/12/29 03:51:59;;;;;;;11.65;2.60;;;;;;;9.39;100.00;100709.34;5034862;28;20039;-59
2023/12/29 03:54:24;;;;;;;10.52;3.10;;;;;;;9.39;100.00;100713.78;5036573;28;20032;-60
2023/12/29 03:56:49;;;;;;;15.48;2.80;;;;;;;9.40;100.00;100708.34;5041934;28;20550;-58
2023/12/29 03:59:15;;;;;;;12.00;2.60;;;;;;;9.42;100.00;100698.47;5034338;28;20041;-60
2023/12/29 04:01:40;;;;;;;11.77;2.65;;;;;;;9.44;100.00;100707.19;5035805;28;20104;-59
2023/12/29 04:04:05;;;;;;;13.65;2.90;;;;;;;9.44;100.00;100701.00;5035828;28;20112;-59
2023/12/29 04:06:31;;;;;;;10.02;2.47;;;;;;;9.43;100.00;100710.78;5036414;28;20467;-59
2023/12/29 04:08:56;;;;;;;10.02;2.60;;;;;;;9.42;100.00;100709.06;5036746;28;20025;-60
2023/12/29 04:11:21;;;;;;;15.82;3.05;;;;;;;9.44;100.00;100703.66;5037127;28;20382;-59
2023/12/29 04:13:46;;;;;;;14.88;3.00;;;;;;;9.44;100.00;100708.97;5038509;28;20036;-59
2023/12/29 04:16:12;;;;;;;12.50;2.60;;;;;;;9.44;100.00;100706.31;5038812;28;20049;-60
2023/12/29 04:18:37;;;;;;;13.25;2.78;;;;;;;9.44;100.00;100704.53;5037760;28;20025;-59
2023/12/29 04:21:02;;;;;;;15.73;2.70;;;;;;;9.43;100.00;100697.53;5035653;28;20057;-58
2023/12/29 04:23:28;;;;;;;18.30;3.28;;;;;;;9.42;100.00;100698.47;5034531;28;20040;-59
2023/12/29 04:25:53;;;;;;;10.90;2.72;;;;;;;9.41;100.00;100694.16;5034447;28;20021;-59
2023/12/29 04:28:18;;;;;;;10.80;2.47;;;;;;;9.41;100.00;100707.41;5039414;28;20405;-60
2023/12/29 04:30:44;;;;;;;11.70;2.78;;;;;;;9.41;100.00;100694.16;5034210;28;20029;-60
2023/12/29 04:33:09;;;;;;;15.00;3.35;;;;;;;9.40;99.94;100689.81;5034600;28;20029;-60
2023/12/29 04:35:34;;;;;;;9.45;2.50;;;;;;;9.39;100.00;100698.72;5031596;28;20025;-59
2023/12/29 04:38:00;;;;;;;14.70;3.08;;;;;;;9.40;99.98;100702.22;5034166;28;20044;-60
2023/12/29 04:40:25;;;;;;;10.27;2.67;;;;;;;9.38;99.78;100704.16;5036944;28;20033;-60
2023/12/29 04:42:50;;;;;;;13.30;2.92;;;;;;;9.37;99.89;100694.50;5038165;28;20029;-58
2023/12/29 04:45:16;;;;;;;16.05;3.03;;;;;;;9.36;99.73;100698.94;5034062;28;20113;-59
2023/12/29 04:47:41;;;;;;;13.88;3.03;;;;;;;9.36;99.77;100698.94;5030910;28;20026;-59
2023/12/29 04:50:07;;;;;;;13.38;2.78;;;;;;;9.34;99.90;100698.22;5030618;28;20036;-59
2023/12/29 04:52:32;;;;;;;11.65;3.00;;;;;;;9.34;99.48;100692.94;5036130;28;20083;-59
2023/12/29 04:54:57;;;;;;;12.57;3.53;;;;;;;9.33;99.44;100685.09;5038186;28;20048;-59
2023/12/29 04:57:23;;;;;;;16.05;3.20;;;;;;;9.34;99.33;100694.72;5044757;28;20025;-59
2023/12/29 04:59:48;;;;;;;16.98;3.10;;;;;;;9.33;99.55;100693.03;5040037;28;20029;-59
2023/12/29 05:02:13;;;;;;;14.43;3.00;;;;;;;9.33;99.25;100693.88;5041573;28;20051;-59
2023/12/29 05:04:38;;;;;;;13.20;2.75;;;;;;;9.35;98.96;100694.59;5041019;28;20104;-60
2023/12/29 05:07:09;;;;;;;9.65;2.75;;;;;;;9.32;99.53;100712.53;5038296;28;20112;-59
2023/12/29 05:09:34;;;;;;;13.20;3.20;;;;;;;9.32;99.50;100710.72;5035186;28;20038;-59
2023/12/29 05:12:00;;;;;;;10.02;2.30;;;;;;;9.33;99.73;100693.03;5047797;28;20474;-59
2023/12/29 05:14:25;;;;;;;10.32;2.85;;;;;;;9.34;99.47;100698.22;5020334;28;20028;-59
2023/12/29 05:16:50;;;;;;;20.15;3.22;;;;;;;9.37;99.71;100697.97;5044098;28;20060;-58
2023/12/29 05:19:16;;;;;;;14.43;3.58;;;;;;;9.37;99.85;100702.44;5036833;28;20398;-59
2023/12/29 05:21:42;;;;;;;10.15;2.50;;;;;;;9.37;100.00;100702.44;5041939;28;20026;-59
2023/12/29 05:24:07;;;;;;;16.30;3.17;;;;;;;9.39;100.00;100714.63;5039593;28;20120;-58
2023/12/29 05:26:33;;;;;;;9.95;3.10;;;;;;;9.40;100.00;100702.22;5042172;28;20105;-57
2023/12/29 05:28:58;;;;;;;10.65;2.40;;;;;;;9.37;100.00;100695.31;5033282;28;20025;-59
2023/12/29 05:31:23;;;;;;;12.68;2.70;;;;;;;9.38;100.00;100694.38;5041165;28;20044;-58
2023/12/29 05:33:48;;;;;;;12.32;3.03;;;;;;;9.39;100.00;100687.25;5038758;28;20492;-59
2023/12/29 05:36:14;;;;;;;12.73;2.45;;;;;;;9.39;100.00;100689.91;5040425;28;20074;-60
2023/12/29 05:38:41;;;;;;;11.52;2.55;;;;;;;9.40;100.00;100683.66;5040426;28;20021;-58
2023/12/29 05:41:06;;;;;;;9.55;2.88;;;;;;;9.39;100.00;100697.88;5041506;28;20172;-59
2023/12/29 05:43:32;;;;;;;10.95;2.63;;;;;;;9.37;100.00;100700.63;5040013;28;20097;-59
2023/12/29 05:45:58;;;;;;;12.27;3.38;;;;;;;9.35;100.00;100685.81;5041759;28;20051;-59
2023/12/29 05:48:24;;;;;;;11.95;2.78;;;;;;;9.34;100.00;100674.38;5039237;28;20030;-58
2023/12/29 05:50:50;;;;;;;12.43;2.50;;;;;;;9.31;100.00;100690.50;5041317;28;20048;-58
2023/12/29 05:53:15;;;;;;;12.60;2.92;;;;;;;9.33;100.00;100699.16;5039643;28;20021;-60
2023/12/29 05:55:41;;;;;;;7.55;2.70;;;;;;;9.35;100.00;100691.09;5044387;28;20033;-59
2023/12/29 05:58:06;;;;;;;14.25;3.90;;;;;;;9.34;100.00;100689.41;5035263;28;20378;-59
2023/12/29 06:00:31;;;;;;;10.75;2.78;;;;;;;9.31;100.00;100681.69;5036572;28;20045;-58
2023/12/29 06:02:57;;;;;;;10.85;3.30;;;;;;;9.32;100.00;100675.44;5038575;28;20018;-59
2023/12/29 06:05:22;;;;;;;15.48;2.85;;;;;;;9.30;100.00;100680.00;5039165;28;20025;-58
2023/12/29 06:07:48;;;;;;;11.15;2.50;;;;;;;9.29;100.00;100673.84;5041313;28;20021;-59
2023/12/29 06:10:13;;;;;;;12.80;3.28;;;;;;;9.27;100.00;100675.75;5046538;28;20474;-59
2023/12/29 06:12:38;;;;;;;10.73;2.90;;;;;;;9.29;100.00;100684.44;5043917;28;20021;-60
2023/12/29 06:15:04;;;;;;;9.18;2.78;;;;;;;9.27;100.00;100686.38;5039314;28;20030;-61
2023/12/29 06:17:29;;;;;;;10.23;2.50;;;;;;;9.25;100.00;100678.53;5035101;28;20482;-58
2023/12/29 06:19:55;;;;;;;10.88;2.50;;;;;;;9.26;100.00;100679.38;5033513;28;20029;-59
2023/12/29 06:22:20;;;;;;;14.65;2.70;;;;;;;9.29;100.00;100670.34;5036440;28;20049;-59
2023/12/29 06:24:45;;;;;;;11.07;2.90;;;;;;;9.30;100.00;100656.16;5039060;28;20067;-59
2023/12/29 06:27:11;;;;;;;11.75;2.70;;;;;;;9.27;100.00;100681.06;5034756;28;20050;-59
2023/12/29 06:29:37;;;;;;;12.10;2.95;;;;;;;9.27;100.00;100673.13;5034302;28;20030;-59
2023/12/29 06:32:03;;;;;;;10.63;2.53;;;;;;;9.26;100.00;100676.75;5040467;28;20029;-59
2023/12/29 06:34:29;;;;;;;11.00;2.30;;;;;;;9.27;100.00;100686.38;5035061;28;20032;-59
2023/12/29 06:36:54;;;;;;;12.27;2.80;;;;;;;9.28;100.00;100687.22;5032351;28;20033;-59
2023/12/29 06:39:19;;;;;;;11.38;2.55;;;;;;;9.30;100.00;100677.34;5037931;28;20033;-59
2023/12/29 06:41:45;;;;;;;9.25;2.42;;;;;;;9.30;100.00;100682.66;5038126;28;20017;-59
2023/12/29 06:44:10;;;;;;;8.73;2.30;;;;;;;9.31;100.00;100684.31;5037950;28;20021;-60
2023/12/29 06:46:39;;;;;;;9.05;2.40;;;;;;;9.29;100.00;100684.44;5040010;28;20471;-60
2023/12/29 06:49:07;;;;;;;10.63;2.30;;;;;;;9.30;100.00;100682.66;5041628;28;20100;-60
2023/12/29 06:51:34;;;;;;;8.50;2.30;;;;;;;9.26;100.00;100682.88;5037331;28;20031;-61
2023/12/29 06:53:59;;;;;;;10.80;2.50;;;;;;;9.26;100.00;100674.09;5035873;28;20033;-59
2023/12/29 06:56:25;;;;;;;10.65;2.33;;;;;;;9.26;100.00;100671.44;5019975;28;20091;-59
2023/12/29 06:58:51;;;;;;;10.98;2.58;;;;;;;9.22;100.00;100677.91;5038101;28;20022;-59
2023/12/29 07:01:16;;;;;;;14.73;2.38;;;;;;;9.21;100.00;100665.63;5035262;28;20544;-60
2023/12/29 07:03:42;;;;;;;11.27;2.60;;;;;;;9.21;100.00;100665.63;5035548;28;20017;-60
2023/12/29 07:06:07;;;;;;;12.63;2.70;;;;;;;9.19;100.00;100664.88;5040519;28;20485;-59
2023/12/29 07:08:33;;;;;;;7.80;2.25;;;;;;;9.19;100.00;100646.34;5027046;28;20040;-59
2023/12/29 07:10:59;;;;;;;12.30;2.70;;;;;;;9.22;100.00;100646.94;5027314;28;20415;-59
2023/12/29 07:13:24;;;;;;;12.82;2.60;;;;;;;9.20;100.00;100654.16;5033707;28;20029;-58
2023/12/29 07:15:49;;;;;;;12.38;2.67;;;;;;;9.19;100.00;100657.78;5009380;28;20078;-58
2023/12/29 07:18:15;;;;;;;11.70;2.63;;;;;;;9.17;100.00;100656.22;5018361;28;20034;-58
2023/12/29 07:20:41;;;;;;;9.73;2.70;;;;;;;9.13;100.00;100655.59;5014610;28;20053;-58
2023/12/29 07:23:06;;;;;;;9.43;2.28;;;;;;;9.14;100.00;100665.22;5013988;28;20088;-60
2023/12/29 07:25:32;;;;;;;11.13;2.65;;;;;;;9.11;100.00;100654.00;5007390;28;20022;-58
2023/12/29 07:27:57;;;;;;;6.65;2.10;;;;;;;9.13;100.00;100636.22;5008196;28;20030;-59
2023/12/29 07:30:23;;;;;;;12.05;2.53;;;;;;;9.14;100.00;100645.81;5012103;28;20080;-59
2023/12/29 07:32:48;;;;;;;13.55;2.47;;;;;;;9.16;100.00;100635.97;5011062;28;20061;-58
2023/12/29 07:35:17;;;;;;;10.90;2.65;;;;;;;9.19;100.00;100638.38;5012452;28;20033;-57
2023/12/29 07:37:43;;;;;;;10.60;2.53;;;;;;;9.23;100.00;100630.09;5010041;28;20379;-60
2023/12/29 07:40:10;;;;;;;9.07;2.42;;;;;;;9.22;100.00;100654.06;5013899;28;20029;-60
2023/12/29 07:42:36;;;;;;;9.45;2.30;;;;;;;9.23;100.00;100638.03;5018157;28;20502;-60
2023/12/29 07:45:01;;;;;;;7.32;2.50;;;;;;;9.25;100.00;100614.91;5016332;28;20033;-60
2023/12/29 07:47:26;;;;;;;8.32;2.40;;;;;;;9.25;100.00;100643.22;5014816;28;20026;-60
2023/12/29 07:49:52;;;;;;;9.85;2.33;;;;;;;9.20;100.00;100645.38;5012758;28;20026;-60
2023/12/29 07:52:17;;;;;;;6.55;2.20;;;;;;;9.17;100.00;100672.94;5011221;28;20026;-58
2023/12/29 07:54:43;;;;;;;10.63;2.50;;;;;;;9.15;100.00;100674.88;5016328;28;20031;-60
2023/12/29 07:57:09;;;;;;;8.70;2.15;;;;;;;9.13;100.00;100686.56;5018559;28;20022;-60
2023/12/29 07:59:35;;;;;;;6.40;1.90;;;;;;;9.11;100.00;100691.97;5014195;28;20501;-60
2023/12/29 08:02:00;;;;;;;7.13;2.03;;;;;;;9.10;100.00;100684.13;5015048;28;20383;-60
2023/12/29 08:04:25;;;;;;;6.03;2.28;;;;;;;9.10;100.00;100684.97;5018974;28;20571;-60
2023/12/29 08:06:51;;;;;;;6.60;2.03;;;;;;;9.08;100.00;100692.19;5011348;28;20036;-59
2023/12/29 08:09:16;;;;;;;8.13;1.98;;;;;;;9.07;100.00;100686.00;5014063;28;20034;-60
2023/12/29 08:11:42;;;;;;;6.18;2.00;;;;;;;9.07;100.00;100680.72;5018972;28;20045;-59
2023/12/29 08:14:08;;;;;;;5.35;1.75;;;;;;;9.07;100.00;100667.47;5011890;28;20029;-60
2023/12/29 08:16:39;;;;;;;5.78;1.90;;;;;;;9.06;100.00;100668.44;5025144;28;20049;-60
2023/12/29 08:19:04;;;;;;;5.90;2.20;;;;;;;9.07;100.00;100666.63;5036561;28;20029;-61
2023/12/29 08:21:29;;;;;;;3.92;1.80;;;;;;;9.08;100.00;100678.94;5037486;28;20037;-60
2023/12/29 08:23:54;;;;;;;5.68;1.90;;;;;;;9.06;100.00;100676.38;5009506;28;20037;-60
2023/12/29 08:26:20;;;;;;;4.95;2.22;;;;;;;9.08;100.00;100679.78;5032335;28;20028;-60
2023/12/29 08:28:45;;;;;;;4.90;1.40;;;;;;;9.06;100.00;100673.75;5037175;28;20021;-61
2023/12/29 08:31:10;;;;;;;4.07;1.65;;;;;;;9.07;100.00;100688.66;5040506;28;20029;-60
2023/12/29 08:33:36;;;;;;;5.72;1.65;;;;;;;9.11;100.00;100688.44;5034628;28;20021;-60
2023/12/29 08:36:03;;;;;;;7.47;2.00;;;;;;;9.06;100.00;100681.69;5042066;28;20037;-60
2023/12/29 08:38:29;;;;;;;2.85;1.75;;;;;;;9.08;100.00;100693.00;5028661;28;20057;-60
2023/12/29 08:40:54;;;;;;;4.82;1.60;;;;;;;9.07;100.00;100698.41;5038002;28;20067;-60
2023/12/29 08:43:21;;;;;;;4.00;1.42;;;;;;;9.07;100.00;100698.41;5033381;28;20029;-60
2023/12/29 08:45:50;;;;;;;4.07;1.50;;;;;;;9.06;100.00;100710.84;5035838;28;20100;-61
2023/12/29 08:48:16;;;;;;;5.70;1.67;;;;;;;9.07;100.00;100703.72;5037757;28;20069;-60
2023/12/29 08:50:42;;;;;;;3.67;1.60;;;;;;;9.07;100.00;100720.47;5035565;28;20072;-60
2023/12/29 08:53:08;;;;;;;7.25;1.80;;;;;;;9.07;100.00;100722.25;5033195;28;20474;-61
2023/12/29 08:55:33;;;;;;;7.20;1.95;;;;;;;9.04;100.00;100715.41;5036711;28;20095;-61
2023/12/29 08:57:59;;;;;;;5.88;1.77;;;;;;;9.06;100.00;100724.09;5038245;28;20037;-60
2023/12/29 09:00:24;;;;;;;3.83;1.48;;;;;;;9.04;100.00;100707.47;5035923;28;20091;-58
2023/12/29 09:02:49;;;;;;;4.38;1.40;;;;;;;9.04;100.00;100710.09;5037881;28;20084;-60
2023/12/29 09:05:15;;;;;;;3.20;1.50;;;;;;;9.03;100.00;100711.06;5032578;28;20021;-61
2023/12/29 09:07:42;;;;;;;4.95;1.45;;;;;;;9.02;100.00;100713.81;5043606;28;20024;-61
2023/12/29 09:10:10;;;;;;;4.45;1.40;;;;;;;9.00;100.00;100713.09;5039139;28;20021;-60
2023/12/29 09:12:36;;;;;;;7.32;1.55;;;;;;;8.97;100.00;100708.00;5025260;28;20084;-61
2023/12/29 09:15:02;;;;;;;3.75;1.67;;;;;;;8.95;100.00;100707.28;5039613;28;20501;-61
2023/12/29 09:17:27;;;;;;;7.25;1.45;;;;;;;8.94;100.00;100713.50;5044765;28;20048;-61
2023/12/29 09:19:52;;;;;;;1.80;1.35;;;;;;;8.92;100.00;100721.56;5039469;28;20482;-61
2023/12/29 09:22:18;;;;;;;6.22;1.20;;;;;;;8.93;100.00;100717.97;5042536;28;20107;-61
2023/12/29 09:24:43;;;;;;;5.20;1.45;;;;;;;8.91;100.00;100717.25;5036278;28;20040;-61
2023/12/29 09:27:08;;;;;;;3.38;1.30;;;;;;;8.92;100.00;100710.97;5040328;28;20465;-61
2023/12/29 09:29:34;;;;;;;3.22;1.48;;;;;;;8.93;100.00;100711.84;5036264;28;20022;-61
2023/12/29 09:31:59;;;;;;;3.50;1.48;;;;;;;8.94;100.00;100708.22;5036322;28;20041;-61
2023/12/29 09:34:24;;;;;;;3.03;1.25;;;;;;;8.95;100.00;100717.88;5039027;28;20037;-61
2023/12/29 09:36:50;;;;;;;3.15;1.20;;;;;;;8.95;100.00;100729.28;5039254;28;20040;-61
2023/12/29 09:39:15;;;;;;;4.10;1.27;;;;;;;8.96;100.00;100723.06;5040750;28;20021;-61
2023/12/29 09:41:45;;;;;;;2.20;1.25;;;;;;;8.99;100.00;100732.56;5042577;28;20025;-61
2023/12/29 09:44:14;;;;;;;3.55;1.45;;;;;;;8.99;100.00;100719.31;5042175;28;20038;-61
2023/12/29 09:46:41;;;;;;;4.63;1.20;;;;;;;9.03;100.00;100700.47;5038865;28;20053;-61
2023/12/29 09:49:08;;;;;;;4.78;1.48;;;;;;;9.02;100.00;100712.00;5040980;28;20036;-61
2023/12/29 09:51:34;;;;;;;2.75;1.20;;;;;;;9.06;100.00;100716.13;5013209;28;20021;-61
2023/12/29 09:54:00;;;;;;;3.08;1.15;;;;;;;9.08;100.00;100716.84;5040845;28;20113;-61
2023/12/29 09:56:26;;;;;;;4.55;1.10;;;;;;;9.13;100.00;100719.19;5040112;28;20444;-61
2023/12/29 09:58:53;;;;;;;2.17;1.20;;;;;;;9.14;100.00;100726.16;5035697;28;20037;-61
2023/12/29 10:01:21;;;;;;;3.53;1.35;;;;;;;9.17;100.00;100727.75;5032868;28;20108;-61
2023/12/29 10:03:47;;;;;;;2.08;1.08;;;;;;;9.19;100.00;100724.03;5040247;28;20033;-61
2023/12/29 10:06:16;;;;;;;1.15;1.10;;;;;;;9.20;100.00;100717.78;5031717;28;20033;-60
2023/12/29 10:08:45;;;;;;;2.10;1.27;;;;;;;9.22;100.00;100722.97;5014169;28;20044;-60
2023/12/29 10:11:11;;;;;;;1.92;1.10;;;;;;;9.23;100.00;100722.84;5034174;28;20033;-61
2023/12/29 10:13:40;;;;;;;3.40;1.60;;;;;;;9.25;100.00;100717.44;5037360;28;20045;-61
2023/12/29 10:16:26;;;;;;;2.60;1.20;;;;;;;9.28;100.00;100713.72;5035250;28;20033;-61
2023/12/29 10:19:13;;;;;;;2.67;1.30;;;;;;;9.29;100.00;100724.19;5039177;28;20029;-60
2023/12/29 10:21:52;;;;;;;3.47;1.10;;;;;;;9.32;100.00;100731.09;5036914;28;20048;-60
2023/12/29 10:24:21;;;;;;;2.50;1.25;;;;;;;9.33;100.00;100730.97;5034378;28;20112;-61
2023/12/29 10:26:47;;;;;;;2.20;1.17;;;;;;;9.36;100.00;100729.88;5036422;28;20028;-61
2023/12/29 10:29:12;;;;;;;3.20;1.25;;;;;;;9.37;100.00;100728.94;5037246;28;20072;-60
2023/12/29 10:31:38;;;;;;;3.25;1.10;;;;;;;9.39;100.00;100735.84;5039096;28;20025;-60
2023/12/29 10:34:31;;;;;;;3.72;1.50;;;;;;;9.43;100.00;100744.41;5037384;28;20035;-60
2023/12/29 10:36:57;;;;;;;1.23;0.90;;;;;;;9.44;100.00;100744.28;5026478;28;20057;-59
2023/12/29 10:39:23;;;;;;;4.20;1.45;;;;;;;9.45;100.00;100756.56;5040038;28;20087;-60
2023/12/29 10:41:49;;;;;;;3.03;1.48;;;;;;;9.48;100.00;100752.03;5035204;28;20030;-61
2023/12/29 10:44:16;;;;;;;4.40;1.52;;;;;;;9.51;100.00;100765.03;5034590;28;20537;-61
2023/12/29 10:46:41;;;;;;;4.35;1.27;;;;;;;9.53;100.00;100763.13;5035738;28;20025;-61
2023/12/29 10:49:12;;;;;;;3.58;1.40;;;;;;;9.57;100.00;100772.53;5033775;28;20029;-61
2023/12/29 10:51:38;;;;;;;3.25;1.50;;;;;;;9.57;100.00;100768.09;5037632;28;20386;-60
2023/12/29 10:54:04;;;;;;;6.80;1.60;;;;;;;9.62;100.00;100762.44;5037879;28;20029;-59
2023/12/29 10:56:33;;;;;;;5.28;1.60;;;;;;;9.63;100.00;100764.16;5039904;28;20430;-60
2023/12/29 10:59:02;;;;;;;7.35;1.80;;;;;;;9.67;100.00;100756.81;5037942;28;20068;-60
2023/12/29 11:01:29;;;;;;;5.85;2.15;;;;;;;9.69;100.00;100769.00;5037291;28;20029;-61
2023/12/29 11:04:07;;;;;;;7.05;1.88;;;;;;;9.71;100.00;100750.31;5037834;28;20025;-59
2023/12/29 11:06:46;;;;;;;6.00;1.67;;;;;;;9.72;100.00;100747.53;5035032;28;20410;-59
2023/12/29 11:09:12;;;;;;;7.63;1.92;;;;;;;9.76;100.00;100745.53;5041207;28;20029;-61
2023/12/29 11:11:37;;;;;;;8.60;1.75;;;;;;;9.77;100.00;100763.13;5036693;28;20025;-61
2023/12/29 11:14:03;;;;;;;9.20;2.10;;;;;;;9.79;100.00;100745.28;5022762;28;20044;-60
2023/12/29 11:16:31;;;;;;;11.07;2.20;;;;;;;9.80;100.00;100758.41;5033267;28;20124;-61